Time;durP1;ratioP1;P1;durP2;ratioP2;P2;SDS_P1;SDS_P2;PMS_P1;PMS_P2;Temp;Humidity;BMP_temperature;BMP_pressure;BME280_temperature;BME280_humidity;BME280_pressure;Samples;Min_cycle;Max_cycle;Signal;HPM_P1;HPM_P2
2023/01/31 00:00:55;;;;;;;21.05;3.33;;;3.80;99.90;;;;;;4325044;28;10000093;-75
2023/01/31 00:03:20;;;;;;;20.55;4.35;;;3.80;99.90;;;;;;5024492;28;20482;-75
2023/01/31 00:05:46;;;;;;;21.70;4.25;;;3.80;99.90;;;;;;5020322;28;20032;-75
2023/01/31 00:08:14;;;;;;;18.63;3.47;;;3.80;99.90;;;;;;5023306;28;20028;-75
2023/01/31 00:10:40;;;;;;;18.23;3.13;;;3.80;99.90;;;;;;5017329;28;20064;-76
2023/01/31 00:13:05;;;;;;;14.15;2.75;;;3.80;99.90;;;;;;5015903;28;20041;-75
2023/01/31 00:15:31;;;;;;;15.93;3.08;;;3.70;99.90;;;;;;5023172;28;20153;-75
2023/01/31 00:17:56;;;;;;;16.52;3.65;;;3.70;99.90;;;;;;5015730;28;20470;-76
2023/01/31 00:20:22;;;;;;;15.30;2.72;;;3.70;99.90;;;;;;5031363;28;20145;-76
2023/01/31 00:22:47;;;;;;;11.70;2.67;;;3.70;99.90;;;;;;5023529;28;20025;-75
2023/01/31 00:25:13;;;;;;;15.48;2.97;;;3.70;99.90;;;;;;5020863;28;21780;-75
2023/01/31 00:27:38;;;;;;;15.02;2.70;;;3.60;99.90;;;;;;5023210;28;20024;-75
2023/01/31 00:30:05;;;;;;;15.00;2.58;;;3.60;99.90;;;;;;5018322;28;20033;-75
2023/01/31 00:32:30;;;;;;;12.45;2.90;;;3.60;99.90;;;;;;5015642;28;20029;-76
2023/01/31 00:34:56;;;;;;;13.32;2.85;;;3.60;99.90;;;;;;5020496;28;20036;-75
2023/01/31 00:37:21;;;;;;;19.30;3.42;;;3.60;99.90;;;;;;5017079;28;20037;-75
2023/01/31 00:39:47;;;;;;;16.02;2.90;;;3.50;99.90;;;;;;5014505;28;20033;-76
2023/01/31 00:42:13;;;;;;;13.82;2.85;;;3.50;99.90;;;;;;5012470;28;20034;-76
2023/01/31 00:44:38;;;;;;;9.85;2.42;;;3.40;99.90;;;;;;5015413;28;20225;-76
2023/01/31 00:47:04;;;;;;;11.65;2.88;;;3.40;99.90;;;;;;5016761;28;20120;-76
2023/01/31 00:49:30;;;;;;;13.02;2.88;;;3.40;99.90;;;;;;5016385;28;20104;-75
2023/01/31 00:51:55;;;;;;;13.48;3.20;;;3.40;99.90;;;;;;5018113;28;20037;-76
2023/01/31 00:54:21;;;;;;;13.50;2.88;;;3.30;99.90;;;;;;5022222;28;20040;-76
2023/01/31 00:56:47;;;;;;;10.10;2.78;;;3.30;99.90;;;;;;5026184;28;20022;-75
2023/01/31 00:59:12;;;;;;;12.52;3.10;;;3.30;99.90;;;;;;5021444;28;20450;-75
2023/01/31 01:01:38;;;;;;;15.40;3.03;;;3.40;99.90;;;;;;5015973;28;20059;-76
2023/01/31 01:04:04;;;;;;;12.93;3.22;;;3.30;99.90;;;;;;5021113;28;20103;-76
2023/01/31 01:06:29;;;;;;;10.60;2.78;;;3.40;99.90;;;;;;5019053;28;20765;-76
2023/01/31 01:08:56;;;;;;;13.32;2.90;;;3.40;99.90;;;;;;5017672;28;20104;-76
2023/01/31 01:11:27;;;;;;;13.93;2.90;;;3.40;99.90;;;;;;5020499;28;20025;-76
2023/01/31 01:13:54;;;;;;;10.65;2.75;;;3.40;99.90;;;;;;5015163;28;20244;-76
2023/01/31 01:16:26;;;;;;;14.95;2.80;;;3.40;99.90;;;;;;5014917;28;20076;-76
2023/01/31 01:18:53;;;;;;;21.42;2.83;;;3.40;99.90;;;;;;5021985;28;20029;-76
2023/01/31 01:21:30;;;;;;;16.77;2.75;;;3.40;99.90;;;;;;5016631;28;20077;-76
2023/01/31 01:23:58;;;;;;;20.40;3.50;;;3.40;99.90;;;;;;5017205;28;20104;-76
2023/01/31 01:26:29;;;;;;;18.38;2.92;;;3.40;99.90;;;;;;5013732;28;20030;-76
2023/01/31 01:28:56;;;;;;;17.92;3.10;;;3.40;99.90;;;;;;5018520;28;20026;-76
2023/01/31 01:31:28;;;;;;;16.10;2.67;;;3.40;99.90;;;;;;5018110;28;20499;-76
2023/01/31 01:33:57;;;;;;;11.82;2.80;;;3.40;99.90;;;;;;5020568;28;20038;-76
2023/01/31 01:36:23;;;;;;;19.15;3.50;;;3.40;99.90;;;;;;5013879;28;20038;-76
2023/01/31 01:38:48;;;;;;;20.58;3.17;;;3.40;99.90;;;;;;5020376;28;20032;-76
2023/01/31 01:41:14;;;;;;;17.70;3.03;;;3.50;99.90;;;;;;5022877;28;20033;-76
2023/01/31 01:43:46;;;;;;;16.98;2.38;;;3.50;99.90;;;;;;5017377;28;20033;-76
2023/01/31 01:46:34;;;;;;;14.88;2.83;;;3.50;99.90;;;;;;5022849;28;20552;-76
2023/01/31 01:49:16;;;;;;;17.58;3.00;;;3.50;99.90;;;;;;5019392;28;20108;-76
2023/01/31 01:51:43;;;;;;;15.18;3.03;;;3.50;99.90;;;;;;5016078;28;20187;-76
2023/01/31 01:54:15;;;;;;;14.18;3.13;;;3.50;99.90;;;;;;5020236;28;20064;-76
2023/01/31 01:56:45;;;;;;;20.33;2.97;;;3.50;99.90;;;;;;5020284;28;20067;-76
2023/01/31 01:59:19;;;;;;;13.43;2.65;;;3.50;99.90;;;;;;5017082;28;20022;-76
2023/01/31 02:01:46;;;;;;;11.05;2.22;;;3.50;99.90;;;;;;5022452;28;20029;-76
2023/01/31 02:04:19;;;;;;;15.80;3.00;;;3.50;99.90;;;;;;5014440;28;20033;-75
2023/01/31 02:06:46;;;;;;;16.50;2.67;;;3.50;99.90;;;;;;5024062;28;20037;-75
2023/01/31 02:09:39;;;;;;;14.30;2.75;;;3.50;99.90;;;;;;5017961;28;20506;-75
2023/01/31 02:12:05;;;;;;;17.23;2.88;;;3.50;99.90;;;;;;5010696;28;20774;-75
2023/01/31 02:14:30;;;;;;;16.13;2.88;;;3.50;99.90;;;;;;5011764;28;20082;-75
2023/01/31 02:16:56;;;;;;;12.82;2.97;;;3.50;99.90;;;;;;5016463;28;20021;-75
2023/01/31 02:19:51;;;;;;;12.77;2.40;;;3.50;99.90;;;;;;5018378;28;20033;-75
2023/01/31 02:22:40;;;;;;;18.10;2.70;;;3.50;99.90;;;;;;5005912;28;20083;-76
2023/01/31 02:25:31;;;;;;;17.05;2.60;;;3.50;99.90;;;;;;5011948;28;20030;-75
2023/01/31 02:28:03;;;;;;;13.32;3.00;;;3.50;99.90;;;;;;5010307;28;20653;-76
2023/01/31 02:31:03;;;;;;;16.52;3.25;;;3.50;99.90;;;;;;5011467;28;20050;-75
2023/01/31 02:33:37;;;;;;;18.60;3.00;;;3.50;99.90;;;;;;5002349;28;20461;-75
2023/01/31 02:36:24;;;;;;;15.93;3.13;;;3.50;99.90;;;;;;5013477;28;20033;-76
2023/01/31 02:39:06;;;;;;;19.17;2.85;;;3.50;99.90;;;;;;5014611;28;20104;-76
2023/01/31 02:41:37;;;;;;;18.52;3.30;;;3.50;99.90;;;;;;5015807;28;20375;-76
2023/01/31 02:47:55;;;;;;;19.75;3.20;;;3.60;99.90;;;;;;5016323;28;20403;-75
2023/01/31 02:50:28;;;;;;;;;;;3.60;99.90;;;;;;4989246;28;20968;-76
2023/01/31 02:53:12;;;;;;;21.45;2.47;;;3.50;99.90;;;;;;4998473;28;19909;-76
2023/01/31 02:56:19;;;;;;;16.10;2.63;;;3.50;99.90;;;;;;5006457;28;20158;-75
2023/01/31 02:59:02;;;;;;;17.98;3.03;;;3.50;99.90;;;;;;5015349;28;20490;-76
2023/01/31 03:01:30;;;;;;;;;;;3.40;99.90;;;;;;5015779;28;20099;-75
2023/01/31 03:04:03;;;;;;;18.55;3.20;;;3.40;99.90;;;;;;5015997;28;19909;-76
2023/01/31 03:06:34;;;;;;;14.55;3.30;;;3.40;99.90;;;;;;5014629;28;20088;-75
2023/01/31 03:09:38;;;;;;;17.20;3.63;;;3.40;99.90;;;;;;5016408;28;20506;-76
2023/01/31 03:12:20;;;;;;;12.27;3.03;;;3.40;99.90;;;;;;4990454;28;20034;-75
2023/01/31 03:14:58;;;;;;;16.70;2.90;;;3.40;99.90;;;;;;5018439;28;20033;-76
2023/01/31 03:18:12;;;;;;;15.15;2.70;;;3.30;99.90;;;;;;5020347;28;20029;-76
2023/01/31 03:20:43;;;;;;;;;;;3.30;99.90;;;;;;4989991;28;20600;-75
2023/01/31 03:23:17;;;;;;;7.97;1.70;;;3.30;99.90;;;;;;5000827;28;20541;-75
2023/01/31 03:25:45;;;;;;;14.63;2.70;;;3.30;99.90;;;;;;5016461;28;20116;-76
2023/01/31 03:28:16;;;;;;;12.93;2.20;;;3.30;99.90;;;;;;5013802;28;20057;-75
2023/01/31 03:30:51;;;;;;;11.95;2.17;;;3.30;99.90;;;;;;5014831;28;20112;-75
2023/01/31 03:33:29;;;;;;;12.88;2.58;;;3.20;99.90;;;;;;5011876;28;20034;-75
2023/01/31 03:36:23;;;;;;;14.05;2.22;;;3.20;99.90;;;;;;5010871;28;20375;-75
2023/01/31 03:39:05;;;;;;;11.90;2.30;;;3.20;99.90;;;;;;5013636;28;20093;-75
2023/01/31 03:41:56;;;;;;;15.02;2.80;;;3.20;99.90;;;;;;5018239;28;20173;-75
2023/01/31 03:44:21;;;;;;;13.73;2.58;;;3.20;99.90;;;;;;5008226;28;20033;-75
2023/01/31 03:46:51;;;;;;;17.38;2.67;;;3.20;99.90;;;;;;5010931;28;20030;-75
2023/01/31 03:49:20;;;;;;;16.40;3.30;;;3.20;99.90;;;;;;5015921;28;20045;-75
2023/01/31 03:51:51;;;;;;;12.45;2.83;;;3.20;99.90;;;;;;5019445;28;20038;-75
2023/01/31 03:54:26;;;;;;;9.35;2.10;;;3.20;99.90;;;;;;5017329;28;21620;-75
2023/01/31 03:56:57;;;;;;;16.35;3.20;;;3.30;99.90;;;;;;5016604;28;20498;-75
2023/01/31 03:59:31;;;;;;;21.77;4.32;;;3.30;99.90;;;;;;5017921;28;20529;-75
2023/01/31 04:02:00;;;;;;;13.15;2.72;;;3.30;99.90;;;;;;5011749;28;20115;-75
2023/01/31 04:04:38;;;;;;;10.25;2.67;;;3.30;99.90;;;;;;5023289;28;20025;-75
2023/01/31 04:07:05;;;;;;;13.20;3.30;;;3.30;99.90;;;;;;5015251;28;20458;-76
2023/01/31 04:09:31;;;;;;;13.52;2.30;;;3.30;99.90;;;;;;5019656;28;20409;-75
2023/01/31 04:12:00;;;;;;;14.23;2.60;;;3.30;99.90;;;;;;5015823;28;20512;-76
2023/01/31 04:14:26;;;;;;;11.55;2.20;;;3.30;99.90;;;;;;5013816;28;20029;-76
2023/01/31 04:16:51;;;;;;;9.30;1.92;;;3.20;99.90;;;;;;5023023;28;20034;-76
2023/01/31 04:19:17;;;;;;;13.98;2.38;;;3.30;99.90;;;;;;5013814;28;20030;-75
2023/01/31 04:21:42;;;;;;;12.27;2.28;;;3.30;99.90;;;;;;5017511;28;20022;-76
2023/01/31 04:24:08;;;;;;;11.10;1.85;;;3.20;99.90;;;;;;5022042;28;20105;-75
2023/01/31 04:26:34;;;;;;;15.70;2.42;;;3.20;99.90;;;;;;5019928;28;20057;-75
2023/01/31 04:29:00;;;;;;;14.98;2.28;;;3.20;99.90;;;;;;5021913;28;21365;-76
2023/01/31 04:31:26;;;;;;;11.98;2.22;;;3.20;99.90;;;;;;5020897;28;20049;-75
2023/01/31 04:33:51;;;;;;;16.25;3.13;;;3.10;99.90;;;;;;5021221;28;20418;-76
2023/01/31 04:36:17;;;;;;;9.30;2.50;;;3.10;99.90;;;;;;5021332;28;20037;-75
2023/01/31 04:38:42;;;;;;;12.80;2.20;;;3.00;99.90;;;;;;5016095;28;20053;-75
2023/01/31 04:41:08;;;;;;;11.60;2.30;;;3.00;99.90;;;;;;5030088;28;20018;-75
2023/01/31 04:43:33;;;;;;;10.45;2.40;;;3.00;99.90;;;;;;5018439;28;20117;-75
2023/01/31 04:45:59;;;;;;;15.95;2.50;;;3.00;99.90;;;;;;5024084;28;20087;-75
2023/01/31 04:48:25;;;;;;;15.85;2.42;;;3.00;99.90;;;;;;5018538;28;20315;-75
2023/01/31 04:50:50;;;;;;;9.98;2.55;;;3.00;99.90;;;;;;5014979;28;20029;-75
2023/01/31 04:53:16;;;;;;;11.80;2.63;;;2.90;99.90;;;;;;5024014;28;20025;-75
2023/01/31 04:55:42;;;;;;;14.88;2.78;;;2.90;99.90;;;;;;5018527;28;20057;-75
2023/01/31 04:58:07;;;;;;;10.65;2.30;;;2.90;99.90;;;;;;5023153;28;20025;-75
2023/01/31 05:00:33;;;;;;;16.13;2.95;;;2.90;99.90;;;;;;5017069;28;20500;-75
2023/01/31 05:02:59;;;;;;;11.77;2.55;;;2.80;99.90;;;;;;5018148;28;20028;-75
2023/01/31 05:05:25;;;;;;;12.70;2.28;;;2.80;99.90;;;;;;5017548;28;20030;-75
2023/01/31 05:07:51;;;;;;;11.48;2.70;;;2.80;99.90;;;;;;5022874;28;20393;-75
2023/01/31 05:10:17;;;;;;;14.25;2.83;;;2.80;99.90;;;;;;5015910;28;20485;-75
2023/01/31 05:12:42;;;;;;;14.48;2.30;;;2.80;99.90;;;;;;5020562;28;20029;-75
2023/01/31 05:15:10;;;;;;;23.83;3.28;;;2.80;99.90;;;;;;5023115;28;20029;-75
2023/01/31 05:17:36;;;;;;;19.45;2.83;;;2.80;99.90;;;;;;5023970;28;20021;-75
2023/01/31 05:20:02;;;;;;;14.40;2.60;;;2.80;99.90;;;;;;5015181;28;20096;-75
2023/01/31 05:22:28;;;;;;;10.30;2.35;;;2.80;99.90;;;;;;5016363;28;20262;-76
2023/01/31 05:24:54;;;;;;;13.38;2.75;;;2.90;99.90;;;;;;5023520;28;20482;-75
2023/01/31 05:27:19;;;;;;;15.27;3.15;;;2.90;99.90;;;;;;5026742;28;20025;-75
2023/01/31 05:29:45;;;;;;;9.77;2.50;;;2.90;99.90;;;;;;5011359;28;20025;-75
2023/01/31 05:32:12;;;;;;;14.48;2.80;;;2.90;99.90;;;;;;5012012;28;20394;-76
2023/01/31 05:34:37;;;;;;;13.60;3.25;;;2.90;99.90;;;;;;5021391;28;20048;-75
2023/01/31 05:37:03;;;;;;;13.73;2.70;;;3.00;99.90;;;;;;5019283;28;20405;-75
2023/01/31 05:39:30;;;;;;;16.10;2.67;;;3.00;99.90;;;;;;5015051;28;20025;-76
2023/01/31 05:41:56;;;;;;;13.13;3.22;;;2.90;99.90;;;;;;5018406;28;20072;-76
2023/01/31 05:44:22;;;;;;;13.60;3.25;;;2.90;99.90;;;;;;5017045;28;20029;-76
2023/01/31 05:46:47;;;;;;;18.85;3.60;;;2.90;99.90;;;;;;5016328;28;20029;-75
2023/01/31 05:49:13;;;;;;;14.25;3.60;;;3.00;99.90;;;;;;5017913;28;20056;-75
2023/01/31 05:51:40;;;;;;;19.60;3.67;;;2.90;99.90;;;;;;5011726;28;20037;-75
2023/01/31 05:54:06;;;;;;;22.92;7.13;;;2.90;99.90;;;;;;5018678;28;20033;-75
2023/01/31 05:56:32;;;;;;;18.92;5.45;;;2.90;99.90;;;;;;5017618;28;20034;-75
2023/01/31 05:58:58;;;;;;;17.63;5.60;;;2.90;99.90;;;;;;5010861;28;20048;-75
2023/01/31 06:01:25;;;;;;;15.45;5.43;;;2.80;99.90;;;;;;5021824;28;20033;-75
2023/01/31 06:03:51;;;;;;;30.25;11.68;;;2.80;99.90;;;;;;5015282;28;20031;-75
2023/01/31 06:06:18;;;;;;;32.90;12.35;;;2.80;99.90;;;;;;5021122;28;20041;-75
2023/01/31 06:08:44;;;;;;;23.75;7.13;;;2.80;99.90;;;;;;5017824;28;20025;-75
2023/01/31 06:11:11;;;;;;;18.63;7.10;;;2.70;99.90;;;;;;5018046;28;20095;-75
2023/01/31 06:13:43;;;;;;;26.23;9.95;;;2.70;99.90;;;;;;5009759;28;21168;-75
2023/01/31 06:16:09;;;;;;;26.65;8.32;;;2.70;99.90;;;;;;5013697;28;20075;-75
2023/01/31 06:18:35;;;;;;;22.10;6.78;;;2.70;99.90;;;;;;5015930;28;20038;-75
2023/01/31 06:21:01;;;;;;;19.95;9.52;;;2.70;99.90;;;;;;5014221;28;20067;-75
2023/01/31 06:23:27;;;;;;;20.65;6.30;;;2.70;99.90;;;;;;5008993;28;20056;-75
2023/01/31 06:25:54;;;;;;;16.75;6.40;;;2.60;99.90;;;;;;5016916;28;20029;-75
2023/01/31 06:28:20;;;;;;;22.42;6.70;;;2.60;99.90;;;;;;5014865;28;20782;-76
2023/01/31 06:30:46;;;;;;;20.23;6.03;;;2.60;99.90;;;;;;5015712;28;20043;-75
2023/01/31 06:33:12;;;;;;;16.35;4.80;;;2.60;99.90;;;;;;5013816;28;20033;-75
2023/01/31 06:35:38;;;;;;;19.70;5.05;;;2.50;99.90;;;;;;5023286;28;20496;-76
2023/01/31 06:38:05;;;;;;;18.50;4.80;;;2.50;99.90;;;;;;5014049;28;20032;-76
2023/01/31 06:40:31;;;;;;;18.23;5.28;;;2.50;99.90;;;;;;5010135;28;20048;-76
2023/01/31 06:42:57;;;;;;;26.55;5.63;;;2.60;99.90;;;;;;5010012;28;20033;-76
2023/01/31 06:45:23;;;;;;;25.05;5.57;;;2.50;99.90;;;;;;5014782;28;20030;-76
2023/01/31 06:47:49;;;;;;;21.85;5.63;;;2.50;99.90;;;;;;5014357;28;20033;-76
2023/01/31 06:50:15;;;;;;;18.77;5.38;;;2.60;99.90;;;;;;5018789;28;20398;-76
2023/01/31 06:52:40;;;;;;;22.77;7.10;;;2.50;99.90;;;;;;5020697;28;20442;-76
2023/01/31 06:55:07;;;;;;;18.48;5.50;;;2.50;99.90;;;;;;5012297;28;20080;-76
2023/01/31 06:57:33;;;;;;;21.30;6.63;;;2.50;99.90;;;;;;5010237;28;20022;-77
2023/01/31 06:59:58;;;;;;;24.20;6.55;;;2.50;99.90;;;;;;5024043;28;20027;-76
2023/01/31 07:02:24;;;;;;;19.50;5.70;;;2.50;99.90;;;;;;5013285;28;20072;-76
2023/01/31 07:04:50;;;;;;;18.70;5.80;;;2.50;99.90;;;;;;5013361;28;20106;-76
2023/01/31 07:07:17;;;;;;;25.27;7.78;;;2.50;99.90;;;;;;5015132;28;20054;-76
2023/01/31 07:09:42;;;;;;;30.40;13.52;;;2.50;99.90;;;;;;5010180;28;20033;-76
2023/01/31 07:12:08;;;;;;;37.10;12.30;;;2.50;99.90;;;;;;5009333;28;20030;-76
2023/01/31 07:14:33;;;;;;;24.73;9.82;;;2.50;99.90;;;;;;5017004;28;20466;-76
2023/01/31 07:16:59;;;;;;;31.17;9.75;;;2.50;99.90;;;;;;5018834;28;20038;-76
2023/01/31 07:19:25;;;;;;;29.63;9.27;;;2.50;99.90;;;;;;5019788;28;20371;-76
2023/01/31 07:21:51;;;;;;;29.25;10.57;;;2.50;99.90;;;;;;5013365;28;20033;-76
2023/01/31 07:24:16;;;;;;;35.58;9.95;;;2.50;99.90;;;;;;5017433;28;20030;-76
2023/01/31 07:26:42;;;;;;;42.33;11.00;;;2.50;99.90;;;;;;5026727;28;20112;-76
2023/01/31 07:29:09;;;;;;;30.33;10.15;;;;;;;;;;5025202;28;20034;-75
2023/01/31 07:31:35;;;;;;;33.28;10.15;;;;;;;;;;5008311;28;20695;-76
2023/01/31 07:34:01;;;;;;;31.55;11.63;;;;;;;;;;5027728;28;20052;-76
2023/01/31 07:36:27;;;;;;;35.03;13.50;;;;;;;;;;5022783;28;20025;-76
2023/01/31 07:38:55;;;;;;;35.92;10.68;;;;;;;;;;5019534;28;20399;-75
2023/01/31 07:41:21;;;;;;;50.78;16.45;;;;;;;;;;5023982;28;20700;-75
2023/01/31 07:43:47;;;;;;;39.60;13.57;;;;;;;;;;5016637;28;20076;-75
2023/01/31 07:46:13;;;;;;;35.90;12.85;;;;;;;;;;5026001;28;20397;-76
2023/01/31 07:48:39;;;;;;;29.30;10.13;;;;;;;;;;5023337;28;20603;-76
2023/01/31 07:51:05;;;;;;;38.90;11.23;;;;;;;;;;5017290;28;20032;-76
2023/01/31 07:53:33;;;;;;;33.85;9.07;;;;;;;;;;5016589;28;20036;-75
2023/01/31 07:56:12;;;;;;;28.35;10.43;;;;;;;;;;5020271;28;20064;-76
2023/01/31 07:58:39;;;;;;;26.77;8.85;;;;;;;;;;5017901;28;20114;-77
2023/01/31 08:03:50;;;;;;;31.52;9.65;;;;;;;;;;5015259;28;20145;-76
2023/01/31 08:06:15;;;;;;;38.10;9.63;;;2.90;99.90;;;;;;5021817;28;20124;-75
2023/01/31 08:08:42;;;;;;;29.02;8.82;;;2.80;99.90;;;;;;5023787;28;20041;-75
2023/01/31 08:11:08;;;;;;;31.73;8.60;;;2.90;99.90;;;;;;5015666;28;20033;-75
2023/01/31 08:13:35;;;;;;;28.30;8.60;;;2.80;99.90;;;;;;5014060;28;20560;-75
2023/01/31 08:16:02;;;;;;;29.02;8.40;;;2.90;99.90;;;;;;5017682;28;20029;-74
2023/01/31 08:18:27;;;;;;;30.35;8.30;;;2.90;99.90;;;;;;5014770;28;20053;-75
2023/01/31 08:20:55;;;;;;;26.88;7.72;;;2.90;99.90;;;;;;5019121;28;20022;-75
2023/01/31 08:23:20;;;;;;;31.92;6.88;;;2.90;99.90;;;;;;5015876;28;20025;-75
2023/01/31 08:25:46;;;;;;;26.20;7.05;;;2.90;99.90;;;;;;5030704;28;20115;-75
2023/01/31 08:28:11;;;;;;;30.08;7.50;;;2.90;99.90;;;;;;5021780;28;20068;-75
2023/01/31 08:30:44;;;;;;;27.67;6.07;;;2.90;99.90;;;;;;5016832;28;20057;-75
2023/01/31 08:33:10;;;;;;;23.33;5.80;;;2.90;99.90;;;;;;5014773;28;20029;-75
2023/01/31 08:35:36;;;;;;;23.65;6.30;;;2.80;99.90;;;;;;5013025;28;20696;-75
2023/01/31 08:38:02;;;;;;;30.23;6.72;;;2.80;99.90;;;;;;5021968;28;20060;-75
2023/01/31 08:40:28;;;;;;;25.50;8.30;;;2.90;99.90;;;;;;5025461;28;20501;-75
2023/01/31 08:42:59;;;;;;;23.70;6.80;;;2.90;99.90;;;;;;5020716;28;20034;-76
2023/01/31 08:45:25;;;;;;;29.90;7.20;;;2.90;99.90;;;;;;5010583;28;20037;-76
2023/01/31 08:47:58;;;;;;;29.85;7.80;;;2.90;99.90;;;;;;5014350;28;20030;-75
2023/01/31 08:50:25;;;;;;;;;;;2.90;99.90;;;;;;5019969;28;20132;-76
2023/01/31 08:52:56;;;;;;;29.77;7.30;;;2.90;99.90;;;;;;5015246;28;20059;-75
2023/01/31 08:55:22;;;;;;;29.52;8.05;;;2.90;99.90;;;;;;5014477;28;20140;-75
2023/01/31 08:57:49;;;;;;;31.65;8.07;;;3.00;99.90;;;;;;5019437;28;20044;-75
2023/01/31 09:00:15;;;;;;;30.55;9.98;;;3.00;99.90;;;;;;5022364;28;20111;-75
2023/01/31 09:02:41;;;;;;;35.65;8.85;;;3.00;99.90;;;;;;5016360;28;20026;-75
2023/01/31 09:05:07;;;;;;;26.48;7.60;;;3.00;99.90;;;;;;5014093;28;20048;-76
2023/01/31 09:07:33;;;;;;;21.95;7.57;;;3.10;99.90;;;;;;5024182;28;20108;-76
2023/01/31 09:09:59;;;;;;;29.48;7.80;;;3.10;99.90;;;;;;5015180;28;20037;-74
2023/01/31 09:12:25;;;;;;;28.55;8.73;;;3.10;99.90;;;;;;5013719;28;20609;-74
2023/01/31 09:14:51;;;;;;;29.75;7.05;;;3.10;99.90;;;;;;5017506;28;20037;-75
2023/01/31 09:17:17;;;;;;;26.13;6.47;;;3.20;99.90;;;;;;5019091;28;20033;-74
2023/01/31 09:19:42;;;;;;;31.80;6.25;;;3.20;99.90;;;;;;5015653;28;20022;-73
2023/01/31 09:22:08;;;;;;;28.48;7.10;;;3.20;99.90;;;;;;5020826;28;20112;-75
2023/01/31 09:24:34;;;;;;;28.55;6.65;;;3.20;99.90;;;;;;5016589;28;20172;-75
2023/01/31 09:26:59;;;;;;;26.90;7.25;;;3.20;99.90;;;;;;5014988;28;20034;-72
2023/01/31 09:29:25;;;;;;;25.30;6.40;;;3.20;99.90;;;;;;5022256;28;20034;-71
2023/01/31 09:31:51;;;;;;;26.95;6.22;;;3.20;99.90;;;;;;5007075;28;20434;-73
2023/01/31 09:34:18;;;;;;;24.60;6.55;;;3.30;99.90;;;;;;5017477;28;20025;-72
2023/01/31 09:36:44;;;;;;;22.58;7.60;;;3.30;99.90;;;;;;5013064;28;20037;-73
2023/01/31 09:39:13;;;;;;;27.00;6.53;;;3.30;99.90;;;;;;5014408;28;20035;-74
2023/01/31 09:41:38;;;;;;;30.42;7.85;;;3.40;99.90;;;;;;5021147;28;20158;-73
2023/01/31 09:44:31;;;;;;;23.98;7.88;;;3.40;99.90;;;;;;5019126;28;20053;-73
2023/01/31 09:47:37;;;;;;;30.13;9.23;;;3.40;99.90;;;;;;5029655;28;20034;-72
2023/01/31 09:50:06;;;;;;;30.58;8.77;;;3.40;99.90;;;;;;5012165;28;20514;-72
2023/01/31 09:52:32;;;;;;;29.48;8.85;;;3.50;99.90;;;;;;5022413;28;20075;-72
2023/01/31 09:54:58;;;;;;;34.85;11.95;;;3.40;99.90;;;;;;5014119;28;20025;-73
2023/01/31 09:57:40;;;;;;;29.58;8.32;;;3.50;99.90;;;;;;5015365;28;20034;-73
2023/01/31 10:00:26;;;;;;;35.60;9.13;;;3.50;99.90;;;;;;5019089;28;20562;-73
2023/01/31 10:03:06;;;;;;;23.83;7.13;;;3.50;99.90;;;;;;5010319;28;20022;-73
2023/01/31 10:05:38;;;;;;;33.00;7.72;;;3.50;99.90;;;;;;5020905;28;20731;-73
2023/01/31 10:08:08;;;;;;;35.30;8.25;;;3.50;99.90;;;;;;5012143;28;20160;-73
2023/01/31 10:10:56;;;;;;;32.63;8.40;;;3.50;99.90;;;;;;5015314;28;20410;-73
2023/01/31 10:13:34;;;;;;;27.38;7.80;;;3.50;99.90;;;;;;5010889;28;20030;-74
2023/01/31 10:16:13;;;;;;;36.67;10.48;;;3.50;99.90;;;;;;5011488;28;20141;-75
2023/01/31 10:18:45;;;;;;;30.00;8.07;;;3.50;99.90;;;;;;5012926;28;20087;-74
2023/01/31 10:21:34;;;;;;;28.30;9.30;;;3.50;99.90;;;;;;5012435;28;20025;-73
2023/01/31 10:24:17;;;;;;;27.73;8.23;;;3.50;99.90;;;;;;5019344;28;20025;-72
2023/01/31 10:26:45;;;;;;;18.30;5.70;;;3.60;99.90;;;;;;5011327;28;20026;-72
2023/01/31 10:29:33;;;;;;;25.80;7.63;;;3.60;99.90;;;;;;5013853;28;20029;-74
2023/01/31 10:32:04;;;;;;;27.77;7.53;;;3.70;99.90;;;;;;5019562;28;20032;-75
2023/01/31 10:34:47;;;;;;;25.90;7.78;;;3.70;99.90;;;;;;5014807;28;20166;-73
2023/01/31 10:37:29;;;;;;;22.60;7.50;;;3.70;99.90;;;;;;5020405;28;20088;-74
2023/01/31 10:40:00;;;;;;;30.88;8.52;;;3.70;99.90;;;;;;5021355;28;20025;-75
2023/01/31 10:42:38;;;;;;;23.90;7.00;;;3.70;99.90;;;;;;5022896;28;20639;-74
2023/01/31 10:45:20;;;;;;;31.95;8.90;;;3.70;99.90;;;;;;5017145;28;20422;-73
2023/01/31 10:47:55;;;;;;;27.25;8.02;;;3.70;99.90;;;;;;5013190;28;20025;-73
2023/01/31 10:50:29;;;;;;;28.75;7.88;;;3.70;99.90;;;;;;5020505;28;20050;-72
2023/01/31 10:53:31;;;;;;;29.23;7.78;;;3.70;99.90;;;;;;5014161;28;20034;-72
2023/01/31 10:56:26;;;;;;;29.58;8.57;;;3.70;99.90;;;;;;5005438;28;20570;-72
2023/01/31 10:58:52;;;;;;;23.98;7.22;;;3.70;99.90;;;;;;5018765;28;20030;-73
2023/01/31 11:01:18;;;;;;;27.23;8.07;;;3.70;99.90;;;;;;5011609;28;20026;-73
2023/01/31 11:03:52;;;;;;;22.50;8.68;;;3.70;99.90;;;;;;5010296;28;20038;-73
2023/01/31 11:06:19;;;;;;;29.25;9.43;;;3.70;99.90;;;;;;5009316;28;20168;-73
2023/01/31 11:09:00;;;;;;;27.42;9.85;;;3.70;99.90;;;;;;5023715;28;20104;-73
2023/01/31 11:11:27;;;;;;;26.95;8.60;;;3.60;99.90;;;;;;5014096;28;20044;-73
2023/01/31 11:13:59;;;;;;;29.98;9.95;;;3.60;99.90;;;;;;5026528;28;20029;-73
2023/01/31 11:16:27;;;;;;;30.35;10.38;;;3.70;99.90;;;;;;5028026;28;20033;-73
2023/01/31 11:18:53;;;;;;;31.60;10.52;;;3.60;99.90;;;;;;5022904;28;20034;-72
2023/01/31 11:21:25;;;;;;;30.23;9.38;;;3.60;99.90;;;;;;5024751;28;20160;-72
2023/01/31 11:23:54;;;;;;;26.33;8.63;;;3.60;99.90;;;;;;5027339;28;20030;-72
2023/01/31 11:26:41;;;;;;;28.40;10.25;;;3.60;99.90;;;;;;5023929;28;20423;-72
2023/01/31 11:29:17;;;;;;;32.78;9.50;;;3.60;99.90;;;;;;5025346;28;20041;-73
2023/01/31 11:31:46;;;;;;;28.35;9.02;;;3.60;99.90;;;;;;5021737;28;20493;-73
2023/01/31 11:34:22;;;;;;;34.10;9.20;;;3.70;99.90;;;;;;5017653;28;20037;-73
2023/01/31 11:36:48;;;;;;;22.40;8.20;;;3.70;99.90;;;;;;5024370;28;20025;-73
2023/01/31 11:39:33;;;;;;;26.15;8.60;;;3.70;99.90;;;;;;5032157;28;20017;-72
2023/01/31 11:42:14;;;;;;;28.25;8.52;;;3.80;99.90;;;;;;5027568;28;20113;-73
2023/01/31 11:45:26;;;;;;;31.92;8.75;;;3.80;99.90;;;;;;5017989;28;20040;-73
2023/01/31 11:47:55;;;;;;;34.63;9.43;;;3.80;99.90;;;;;;5011166;28;20041;-73
2023/01/31 11:50:31;;;;;;;26.15;8.95;;;3.70;99.90;;;;;;5019571;28;20514;-73
2023/01/31 11:53:02;;;;;;;28.75;9.13;;;3.80;99.90;;;;;;5022042;28;20086;-74
2023/01/31 11:55:36;;;;;;;28.02;9.55;;;3.70;99.90;;;;;;5023290;28;20033;-73
2023/01/31 11:58:14;;;;;;;33.53;9.77;;;3.60;99.90;;;;;;5017104;28;20148;-73
2023/01/31 12:00:51;;;;;;;30.13;9.30;;;3.60;99.90;;;;;;5015986;28;20448;-73
2023/01/31 12:03:17;;;;;;;31.50;9.60;;;3.60;99.90;;;;;;5019385;28;20040;-73
2023/01/31 12:05:45;;;;;;;30.70;10.20;;;3.70;99.90;;;;;;5022548;28;20047;-73
2023/01/31 12:08:35;;;;;;;28.02;9.55;;;3.60;99.90;;;;;;5030410;28;20041;-73
2023/01/31 12:11:29;;;;;;;26.15;10.18;;;3.60;99.90;;;;;;5017607;28;20387;-73
2023/01/31 12:14:14;;;;;;;33.22;10.25;;;3.70;99.90;;;;;;5022561;28;20088;-72
2023/01/31 12:16:40;;;;;;;28.98;9.65;;;3.70;99.90;;;;;;5030035;28;20120;-73
2023/01/31 12:19:11;;;;;;;31.48;9.05;;;3.70;99.90;;;;;;5016966;28;20099;-72
2023/01/31 12:22:01;;;;;;;24.00;8.07;;;3.70;99.90;;;;;;5022226;28;20034;-72
2023/01/31 12:24:38;;;;;;;31.60;9.45;;;3.70;99.90;;;;;;5021779;28;20056;-72
2023/01/31 12:27:28;;;;;;;24.10;7.90;;;3.80;99.90;;;;;;5016334;28;20448;-72
2023/01/31 12:30:18;;;;;;;25.90;9.40;;;3.80;99.90;;;;;;5028556;28;20021;-72
2023/01/31 12:33:01;;;;;;;31.88;8.02;;;3.80;99.90;;;;;;5021672;28;20029;-72
2023/01/31 12:36:01;;;;;;;22.10;7.47;;;3.90;99.90;;;;;;5021863;28;20021;-72
2023/01/31 12:38:32;;;;;;;26.77;8.88;;;;;;;;;;5024644;28;20030;-72
2023/01/31 12:41:18;;;;;;;27.90;8.88;;;3.90;99.90;;;;;;5023351;28;20056;-72
2023/01/31 12:43:51;;;;;;;27.92;8.45;;;3.90;99.90;;;;;;5017730;28;20580;-73
2023/01/31 12:46:24;;;;;;;;;;;4.00;99.90;;;;;;5022356;28;20017;-74
2023/01/31 12:49:16;;;;;;;23.67;9.25;;;4.00;99.90;;;;;;5020011;28;19952;-73
2023/01/31 12:52:14;;;;;;;20.63;7.63;;;4.00;99.90;;;;;;5012501;28;20049;-73
2023/01/31 12:55:02;;;;;;;18.45;6.57;;;4.00;99.90;;;;;;5021514;28;20049;-74
2023/01/31 12:57:42;;;;;;;23.58;6.50;;;4.10;99.90;;;;;;5021034;28;20398;-73
2023/01/31 13:00:09;;;;;;;23.67;7.78;;;;;;;;;;5013164;28;20048;-74
2023/01/31 13:03:11;;;;;;;20.45;6.97;;;4.10;99.90;;;;;;5006762;28;20108;-76
2023/01/31 13:05:40;;;;;;;19.13;7.97;;;4.10;99.90;;;;;;4324665;28;10000678;-73
2023/01/31 13:08:16;;;;;;;22.05;8.68;;;4.00;99.90;;;;;;5009766;28;20030;-75
2023/01/31 13:11:12;;;;;;;20.85;6.88;;;4.00;99.90;;;;;;5016609;28;20045;-71
2023/01/31 13:13:41;;;;;;;19.42;7.03;;;;;;;;;;5013142;28;20036;-73
2023/01/31 13:16:24;;;;;;;20.35;6.63;;;4.00;99.90;;;;;;5018179;28;20038;-72
2023/01/31 13:18:53;;;;;;;22.67;6.80;;;4.00;99.90;;;;;;5013672;28;20060;-72
2023/01/31 13:21:25;;;;;;;19.38;6.63;;;3.90;99.90;;;;;;5012872;28;20025;-71